Time;durP1;ratioP1;P1;durP2;ratioP2;P2;SDS_P1;SDS_P2;PMS_P1;PMS_P2;Temp;Humidity;BMP_temperature;BMP_pressure;BME280_temperature;BME280_humidity;BME280_pressure;Samples;Min_cycle;Max_cycle;Signal;HPM_P1;HPM_P2
2022/02/08 00:00:18;;;;;;;8.93;4.90;;;5.00;99.90;;;;;;10334613;28;20586;-79
2022/02/08 00:05:21;;;;;;;3.83;3.00;;;5.00;99.90;;;;;;10323582;28;20192;-80
2022/02/08 00:10:26;;;;;;;4.33;2.60;;;5.00;99.90;;;;;;10299312;28;20223;-81
2022/02/08 00:15:30;;;;;;;10.27;3.07;;;4.80;99.90;;;;;;10296629;28;20204;-79
2022/02/08 00:20:32;;;;;;;9.57;4.10;;;4.60;99.90;;;;;;10309621;28;20241;-80
2022/02/08 00:25:34;;;;;;;5.43;2.70;;;4.40;99.90;;;;;;10310071;28;20219;-80
2022/02/08 00:30:37;;;;;;;4.90;3.40;;;4.40;99.90;;;;;;10326430;28;20266;-79
2022/02/08 00:35:41;;;;;;;12.73;3.17;;;4.30;99.90;;;;;;10334208;28;20227;-80
2022/02/08 00:40:47;;;;;;;5.67;2.93;;;4.30;99.90;;;;;;10302770;28;20216;-80
2022/02/08 00:45:56;;;;;;;4.40;2.90;;;4.40;99.90;;;;;;10297225;28;20702;-80
2022/02/08 00:50:59;;;;;;;3.93;3.50;;;4.50;99.90;;;;;;10312385;28;20258;-80
2022/02/08 00:56:02;;;;;;;5.63;3.20;;;4.60;99.90;;;;;;10319228;28;20227;-81
2022/02/08 01:01:07;;;;;;;6.00;2.80;;;4.70;99.90;;;;;;10329606;28;20291;-80
2022/02/08 01:06:10;;;;;;;7.03;2.63;;;4.80;99.90;;;;;;10334514;28;20215;-82
2022/02/08 01:11:12;;;;;;;4.63;3.00;;;4.80;99.90;;;;;;10358435;28;20243;-81
2022/02/08 01:16:17;;;;;;;6.93;3.10;;;4.80;99.90;;;;;;10309799;28;20224;-81
2022/02/08 01:21:19;;;;;;;3.03;2.67;;;5.00;99.90;;;;;;10336966;28;20207;-81
2022/02/08 01:26:21;;;;;;;6.63;2.70;;;5.00;99.90;;;;;;10309177;28;20223;-81
2022/02/08 01:31:25;;;;;;;5.93;2.60;;;5.00;99.90;;;;;;10324890;28;20226;-81
2022/02/08 01:36:43;;;;;;;7.13;2.87;;;5.00;99.90;;;;;;10334784;28;20594;-80
2022/02/08 01:47:21;;;;;;;4.40;2.37;;;4.90;99.90;;;;;;10297724;28;20277;-80
2022/02/08 01:52:24;;;;;;;6.10;2.73;;;5.00;99.90;;;;;;10325971;28;20285;-82
2022/02/08 01:57:27;;;;;;;7.07;3.00;;;5.00;99.90;;;;;;10326081;28;20227;-81
2022/02/08 02:02:31;;;;;;;5.60;2.60;;;5.00;99.90;;;;;;10310891;28;20213;-82
2022/02/08 02:07:34;;;;;;;7.95;2.85;;;5.10;99.90;;;;;;10384704;23;20240;-77
2022/02/08 02:12:38;;;;;;;4.27;2.80;;;5.20;99.90;;;;;;10462431;28;20441;-79
2022/02/08 02:17:41;;;;;;;8.73;3.00;;;5.20;99.90;;;;;;10462049;28;20225;-79
2022/02/08 02:22:44;;;;;;;4.17;2.50;;;5.30;99.90;;;;;;10444586;28;20722;-79
2022/02/08 02:27:49;;;;;;;4.17;2.87;;;5.30;99.90;;;;;;10455374;28;20225;-77
2022/02/08 02:32:52;;;;;;;4.77;3.10;;;5.30;99.90;;;;;;10435110;28;20202;-79
2022/02/08 02:37:57;;;;;;;4.03;2.40;;;5.40;99.90;;;;;;10456909;28;20278;-79
2022/02/08 02:43:01;;;;;;;9.13;3.27;;;5.40;99.90;;;;;;10456367;28;20197;-78
2022/02/08 02:48:06;;;;;;;4.40;2.60;;;5.40;99.90;;;;;;10456103;28;20651;-78
2022/02/08 02:53:20;;;;;;;7.10;2.80;;;5.50;99.90;;;;;;10440498;28;20248;-79
2022/02/08 02:58:28;;;;;;;6.53;3.40;;;5.50;99.90;;;;;;10458040;28;20583;-78
2022/02/08 03:03:43;;;;;;;5.00;2.57;;;5.60;99.90;;;;;;10457425;28;20201;-79
2022/02/08 03:19:29;;;;;;;7.30;2.73;;;5.70;99.90;;;;;;10458359;28;20217;-79
2022/02/08 03:24:31;;;;;;;6.10;2.83;;;5.70;99.90;;;;;;10440255;28;20259;-78
2022/02/08 03:29:36;;;;;;;4.40;2.40;;;5.70;99.90;;;;;;10456120;28;20504;-79
2022/02/08 03:34:39;;;;;;;4.73;2.73;;;5.70;99.90;;;;;;10458321;28;20201;-79
2022/02/08 03:39:44;;;;;;;6.90;3.03;;;5.80;99.90;;;;;;10464511;28;20638;-78
2022/02/08 03:44:55;;;;;;;4.53;2.57;;;5.80;99.90;;;;;;10465865;28;20208;-79
2022/02/08 03:49:59;;;;;;;6.93;2.73;;;5.80;99.90;;;;;;10460682;28;20228;-78
2022/02/08 03:55:01;;;;;;;5.90;2.80;;;5.80;99.90;;;;;;10456736;28;20657;-77
2022/02/08 04:00:09;;;;;;;8.13;2.70;;;5.70;99.90;;;;;;10439385;28;20237;-75
2022/02/08 04:05:25;;;;;;;4.10;2.90;;;5.60;99.90;;;;;;10457435;28;20228;-78
2022/02/08 04:10:29;;;;;;;3.83;2.80;;;5.60;99.90;;;;;;10456876;28;20221;-77
2022/02/08 04:15:44;;;;;;;4.67;2.80;;;5.60;99.90;;;;;;10456465;28;20193;-77
2022/02/08 04:31:52;;;;;;;4.30;2.50;;;5.70;99.90;;;;;;10456276;28;20216;-77
2022/02/08 04:42:19;;;;;;;5.77;2.67;;;5.80;99.90;;;;;;10424225;28;20220;-78
2022/02/08 04:47:28;;;;;;;5.00;2.70;;;5.80;99.90;;;;;;10453080;28;20228;-77
2022/02/08 04:52:31;;;;;;;6.70;2.50;;;5.80;99.90;;;;;;10455439;28;20220;-77
2022/02/08 04:57:41;;;;;;;6.20;2.97;;;5.70;99.90;;;;;;10453390;28;20229;-77
2022/02/08 05:30:02;;;;;;;5.40;2.90;;;5.60;99.90;;;;;;10457864;28;20216;-78
2022/02/08 05:46:26;;;;;;;5.03;2.13;;;5.70;99.90;;;;;;10318113;28;20204;-78
2022/02/08 05:51:43;;;;;;;8.70;3.13;;;5.80;99.90;;;;;;10433110;28;20227;-78
2022/02/08 05:56:49;;;;;;;3.40;2.43;;;5.90;99.90;;;;;;10452936;28;20312;-77
2022/02/08 06:01:51;;;;;;;6.13;2.60;;;6.00;99.90;;;;;;10453619;28;20657;-80
2022/02/08 06:07:20;;;;;;;9.50;3.33;;;5.90;99.90;;;;;;10450868;28;20716;-78
2022/02/08 06:12:25;;;;;;;5.67;2.70;;;5.90;99.90;;;;;;10443156;28;20217;-80
2022/02/08 06:17:30;;;;;;;5.50;2.50;;;6.00;99.90;;;;;;10460471;28;20232;-79
2022/02/08 06:22:35;;;;;;;5.57;2.43;;;6.00;99.90;;;;;;10453698;28;20687;-78
2022/02/08 06:27:39;;;;;;;6.00;2.47;;;6.10;99.90;;;;;;10442848;28;20278;-80
2022/02/08 06:32:41;;;;;;;3.57;2.00;;;6.10;99.90;;;;;;10460501;28;20213;-80
2022/02/08 06:37:45;;;;;;;4.13;2.30;;;6.20;99.90;;;;;;10442840;28;20293;-80
2022/02/08 06:42:47;;;;;;;3.33;2.60;;;6.20;99.90;;;;;;10460352;28;20205;-79
2022/02/08 06:47:52;;;;;;;4.13;2.50;;;6.20;99.90;;;;;;10459613;28;20213;-78
2022/02/08 06:52:55;;;;;;;5.10;2.90;;;6.30;99.90;;;;;;10456033;28;20213;-78
2022/02/08 06:58:03;;;;;;;4.53;2.70;;;6.20;99.90;;;;;;10454830;28;20259;-80
2022/02/08 07:03:06;;;;;;;4.23;2.73;;;6.20;99.90;;;;;;10457198;28;20224;-81
2022/02/08 07:08:10;;;;;;;2.30;2.10;;;6.10;99.90;;;;;;10457497;28;20221;-81
2022/02/08 07:13:12;;;;;;;5.70;2.67;;;6.20;99.90;;;;;;10468602;28;20237;-81
2022/02/08 07:18:14;;;;;;;4.23;2.53;;;6.30;99.90;;;;;;10465068;28;20225;-81
2022/02/08 07:23:18;;;;;;;3.60;2.23;;;6.40;99.90;;;;;;10464218;28;20270;-79
2022/02/08 07:28:20;;;;;;;4.40;2.70;;;6.60;99.90;;;;;;10447591;28;20223;-81
2022/02/08 07:33:22;;;;;;;11.47;2.90;;;6.70;99.90;;;;;;10468384;28;20228;-81
2022/02/08 07:38:30;;;;;;;9.97;3.30;;;6.70;99.90;;;;;;10465317;28;20252;-82
2022/02/08 07:43:39;;;;;;;11.30;2.77;;;6.80;99.90;;;;;;10466021;28;20209;-81
2022/02/08 07:48:41;;;;;;;6.80;2.60;;;6.90;99.90;;;;;;10457007;28;20263;-80
2022/02/08 07:53:45;;;;;;;7.90;3.30;;;6.90;99.90;;;;;;10450184;28;20255;-80
2022/02/08 07:58:47;;;;;;;7.33;2.53;;;7.00;99.90;;;;;;10450530;28;20243;-78
2022/02/08 08:03:49;;;;;;;7.00;2.97;;;7.00;99.90;;;;;;10451379;28;20193;-81
2022/02/08 08:08:53;;;;;;;5.50;2.97;;;7.10;99.90;;;;;;10455822;28;20227;-81
2022/02/08 08:14:02;;;;;;;4.87;2.70;;;7.10;99.90;;;;;;10436221;28;20645;-81
2022/02/08 08:19:19;;;;;;;5.00;2.30;;;7.10;99.90;;;;;;10458188;28;20777;-81
2022/02/08 08:24:23;;;;;;;6.10;2.67;;;7.30;99.90;;;;;;10454017;28;20219;-82
2022/02/08 08:29:25;;;;;;;6.43;2.70;;;7.20;99.90;;;;;;10459134;28;20251;-81
2022/02/08 08:34:29;;;;;;;7.37;2.77;;;7.30;99.90;;;;;;10457933;28;20201;-81
2022/02/08 08:39:39;;;;;;;5.27;2.53;;;7.50;99.90;;;;;;10456904;28;20214;-81
2022/02/08 08:45:02;;;;;;;5.00;2.60;;;7.50;99.90;;;;;;10454541;28;20729;-81
2022/02/08 08:50:11;;;;;;;7.20;3.00;;;7.60;99.90;;;;;;10458993;28;20253;-83
2022/02/08 08:55:18;;;;;;;5.53;3.00;;;7.60;99.90;;;;;;10474448;28;20198;-78
2022/02/08 09:00:21;;;;;;;6.90;3.10;;;7.60;99.90;;;;;;10441865;28;20205;-79
2022/02/08 09:05:23;;;;;;;6.57;3.23;;;7.40;99.90;;;;;;10452290;28;20225;-80
2022/02/08 09:10:35;;;;;;;6.00;2.67;;;7.40;99.90;;;;;;10453809;28;20230;-78
2022/02/08 09:15:52;;;;;;;4.10;2.47;;;7.40;99.90;;;;;;10450788;28;20213;-77
2022/02/08 09:31:32;;;;;;;4.20;2.60;;;7.60;99.90;;;;;;10457349;28;20220;-77
2022/02/08 09:36:34;;;;;;;6.57;2.70;;;7.60;99.90;;;;;;10463177;28;20243;-78
2022/02/08 09:41:38;;;;;;;7.20;2.60;;;7.70;99.90;;;;;;10428618;28;20202;-77
2022/02/08 09:46:40;;;;;;;6.50;2.53;;;7.80;99.90;;;;;;10439578;28;20220;-79
2022/02/08 09:51:49;;;;;;;7.73;3.00;;;7.80;99.90;;;;;;10452862;28;20308;-78
2022/02/08 09:56:53;;;;;;;6.40;2.23;;;7.80;99.90;;;;;;10452499;28;20276;-77
2022/02/08 10:01:58;;;;;;;7.33;2.80;;;7.90;99.90;;;;;;10454684;28;20699;-79
2022/02/08 10:07:11;;;;;;;5.33;2.20;;;8.00;99.90;;;;;;10454093;28;20315;-78
2022/02/08 10:12:20;;;;;;;3.63;2.10;;;8.00;99.90;;;;;;10453318;28;20316;-79
2022/02/08 10:22:50;;;;;;;4.53;2.80;;;8.20;99.90;;;;;;10446845;28;20197;-77
2022/02/08 10:28:03;;;;;;;7.00;2.57;;;8.30;99.90;;;;;;10441939;28;20707;-77
2022/02/08 10:38:36;;;;;;;7.13;2.57;;;8.60;99.90;;;;;;10446840;28;20241;-78
2022/02/08 10:43:43;;;;;;;4.20;2.47;;;8.70;99.90;;;;;;10466218;28;20197;-79
2022/02/08 10:48:45;;;;;;;7.73;2.77;;;8.90;99.90;;;;;;10462583;28;20221;-80
2022/02/08 10:53:57;;;;;;;3.40;2.27;;;9.00;99.90;;;;;;10461109;28;20525;-77
2022/02/08 10:59:13;;;;;;;6.67;2.97;;;9.10;99.90;;;;;;10455054;28;20220;-78
2022/02/08 11:04:21;;;;;;;5.47;2.33;;;9.10;99.90;;;;;;10462149;28;20284;-77
2022/02/08 11:09:36;;;;;;;3.87;2.17;;;9.10;99.90;;;;;;10461933;28;20229;-77
2022/02/08 11:15:03;;;;;;;3.60;2.20;;;9.10;99.90;;;;;;10455039;28;20780;-77
2022/02/08 11:20:18;;;;;;;4.17;2.53;;;9.00;99.90;;;;;;10455383;28;20220;-80
2022/02/08 11:25:24;;;;;;;3.80;2.10;;;9.30;99.90;;;;;;10466044;28;20284;-80
2022/02/08 11:30:32;;;;;;;5.10;2.63;;;9.50;99.90;;;;;;10466681;28;20225;-80
2022/02/08 11:46:50;;;;;;;4.70;1.80;;;10.10;99.90;;;;;;10455349;28;20643;-78
2022/02/08 12:08:02;;;;;;;2.70;1.80;;;10.70;99.90;;;;;;10459762;28;20242;-79
2022/02/08 12:13:25;;;;;;;2.57;2.13;;;10.80;99.90;;;;;;10456442;28;20715;-79
2022/02/08 12:56:29;;;;;;;2.20;1.60;;;11.20;99.90;;;;;;10434071;28;20258;-80
2022/02/08 14:06:05;;;;;;;5.10;1.80;;;11.10;99.90;;;;;;10419864;28;20223;-79
2022/02/08 14:11:46;;;;;;;1.73;1.60;;;11.00;99.90;;;;;;10415918;23;20609;-79
2022/02/08 14:22:30;;;;;;;2.90;2.10;;;11.00;99.90;;;;;;10393849;28;20200;-79
2022/02/08 14:33:06;;;;;;;1.67;1.57;;;11.00;99.90;;;;;;10414809;28;20245;-79
2022/02/08 15:05:34;;;;;;;3.83;1.90;;;10.70;99.90;;;;;;10414639;28;20265;-79
2022/02/08 15:10:41;;;;;;;3.00;1.60;;;10.70;99.90;;;;;;10393010;28;20248;-79
2022/02/08 15:16:03;;;;;;;1.30;1.20;;;10.70;99.90;;;;;;10402404;28;20212;-79
2022/02/08 15:21:09;;;;;;;2.20;1.60;;;10.70;99.90;;;;;;10399640;28;20310;-79
2022/02/08 15:26:11;;;;;;;3.73;1.40;;;10.70;99.90;;;;;;10388608;28;20205;-79
2022/02/08 15:31:17;;;;;;;2.43;1.80;;;10.60;99.90;;;;;;10404834;28;20217;-78
2022/02/08 15:36:19;;;;;;;3.77;1.47;;;10.60;99.90;;;;;;10408441;28;20241;-80
2022/02/08 15:41:21;;;;;;;3.80;1.90;;;10.60;99.90;;;;;;10404508;28;20252;-79
2022/02/08 15:46:26;;;;;;;3.17;1.50;;;10.50;99.90;;;;;;10398064;28;20201;-79
2022/02/08 15:51:32;;;;;;;1.90;1.80;;;10.50;99.90;;;;;;10413138;28;20218;-80
2022/02/08 15:56:52;;;;;;;3.63;1.93;;;10.40;99.90;;;;;;10406828;28;20210;-80
2022/02/08 16:07:19;;;;;;;2.43;1.70;;;10.30;99.90;;;;;;10415352;28;20237;-79
2022/02/08 16:12:39;;;;;;;4.93;2.10;;;10.30;99.90;;;;;;10422567;28;20280;-79
2022/02/08 16:17:55;;;;;;;2.20;1.70;;;10.30;99.90;;;;;;10402915;28;20221;-79
2022/02/08 16:28:28;;;;;;;2.00;1.57;;;10.20;99.90;;;;;;10412155;28;20237;-80
2022/02/08 16:49:49;;;;;;;4.13;1.70;;;10.00;99.90;;;;;;10391030;28;20260;-80
2022/02/08 16:54:55;;;;;;;4.73;1.90;;;10.00;99.90;;;;;;10407045;28;20243;-80
2022/02/08 16:59:59;;;;;;;2.43;1.73;;;10.00;99.90;;;;;;10401960;28;20222;-80
2022/02/08 17:05:03;;;;;;;3.50;2.03;;;9.90;99.90;;;;;;10411162;28;20289;-79
2022/02/08 17:10:11;;;;;;;3.00;2.37;;;9.90;99.90;;;;;;10407147;28;20698;-80
2022/02/08 17:15:39;;;;;;;2.80;1.93;;;9.90;99.90;;;;;;10407919;28;20199;-80
2022/02/08 17:47:40;;;;;;;5.80;3.30;;;9.90;99.90;;;;;;10384465;28;20234;-78
2022/02/08 17:52:46;;;;;;;3.77;2.87;;;9.90;99.90;;;;;;10389447;28;20229;-79
2022/02/08 17:57:49;;;;;;;3.50;2.80;;;9.90;99.90;;;;;;10392496;28;20709;-75
2022/02/08 18:02:51;;;;;;;3.83;2.97;;;9.90;99.90;;;;;;10394500;28;20564;-76
2022/02/08 18:07:54;;;;;;;4.70;2.40;;;9.90;99.90;;;;;;10409174;28;20233;-76
2022/02/08 18:12:57;;;;;;;4.57;2.73;;;9.90;99.90;;;;;;10410273;28;20290;-75
2022/02/08 18:18:03;;;;;;;4.60;3.17;;;9.90;99.90;;;;;;10401985;28;20233;-76
2022/02/08 18:23:22;;;;;;;6.43;3.17;;;9.90;99.90;;;;;;10405124;28;20224;-77
2022/02/08 18:28:42;;;;;;;6.93;3.00;;;9.90;99.90;;;;;;10402984;28;20597;-76
2022/02/08 18:55:54;;;;;;;5.63;2.67;;;9.90;99.90;;;;;;10406379;28;20348;-77
2022/02/08 19:12:07;;;;;;;3.43;2.73;;;9.90;99.90;;;;;;10396601;28;20693;-77
2022/02/08 19:17:18;;;;;;;7.90;2.90;;;9.80;99.90;;;;;;10397023;28;20275;-77
2022/02/08 19:22:23;;;;;;;3.63;2.50;;;9.80;99.90;;;;;;10415127;28;20255;-78
2022/02/08 19:27:26;;;;;;;4.43;2.60;;;9.90;99.90;;;;;;10398914;28;20221;-80
2022/02/08 19:32:28;;;;;;;5.80;3.00;;;9.90;99.90;;;;;;10430338;28;20226;-78
2022/02/08 19:37:31;;;;;;;2.97;2.77;;;9.90;99.90;;;;;;10411086;28;20706;-79
2022/02/08 19:42:37;;;;;;;5.33;2.87;;;9.90;99.90;;;;;;10416362;28;20207;-79
2022/02/08 19:47:39;;;;;;;7.83;3.13;;;9.90;99.90;;;;;;10421176;28;20272;-79
2022/02/08 19:52:43;;;;;;;3.13;2.83;;;9.90;99.90;;;;;;10409578;28;20228;-79
2022/02/08 19:57:49;;;;;;;4.80;2.80;;;9.90;99.90;;;;;;10424726;28;20393;-80
2022/02/08 20:02:54;;;;;;;6.03;3.33;;;9.90;99.90;;;;;;10417252;28;20267;-80
2022/02/08 20:07:57;;;;;;;4.90;3.10;;;9.90;99.90;;;;;;10441238;23;20240;-80
2022/02/08 20:13:00;;;;;;;5.70;3.10;;;9.90;99.90;;;;;;10423172;28;20226;-80
2022/02/08 20:18:03;;;;;;;3.57;3.23;;;9.90;99.90;;;;;;10404900;28;20309;-79
2022/02/08 20:23:06;;;;;;;5.93;3.50;;;9.80;99.90;;;;;;10423842;28;20249;-81
2022/02/08 20:28:13;;;;;;;8.30;3.90;;;9.80;99.90;;;;;;10408192;28;20218;-80
2022/02/08 20:33:15;;;;;;;6.10;3.90;;;9.80;99.90;;;;;;10454829;28;20232;-81
2022/02/08 20:38:17;;;;;;;4.07;3.17;;;9.80;99.90;;;;;;10409907;28;20313;-81
2022/02/08 20:43:21;;;;;;;6.13;3.50;;;9.70;99.90;;;;;;10427483;28;20209;-81
2022/02/08 20:48:25;;;;;;;6.43;3.83;;;9.70;99.90;;;;;;10426492;28;20229;-81
2022/02/08 20:53:36;;;;;;;7.40;3.63;;;9.70;99.90;;;;;;10428759;28;20233;-81
2022/02/08 20:59:03;;;;;;;6.13;4.20;;;9.70;99.90;;;;;;10422892;28;20271;-81
2022/02/08 21:04:13;;;;;;;6.97;4.80;;;9.70;99.90;;;;;;10423102;28;20263;-81
2022/02/08 21:09:16;;;;;;;5.30;4.33;;;9.70;99.90;;;;;;10404348;28;20275;-81
2022/02/08 21:14:21;;;;;;;6.63;5.13;;;9.70;99.90;;;;;;10422167;28;20222;-80
2022/02/08 21:19:25;;;;;;;11.70;4.33;;;9.70;99.90;;;;;;10426568;28;20222;-80
2022/02/08 21:24:30;;;;;;;6.93;5.13;;;9.70;99.90;;;;;;10428438;28;20296;-80
2022/02/08 21:29:44;;;;;;;9.00;5.33;;;9.70;99.90;;;;;;10420198;28;20217;-80
2022/02/08 21:56:17;;;;;;;6.33;5.63;;;9.60;99.90;;;;;;10375381;28;20213;-81
2022/02/08 22:01:21;;;;;;;7.70;6.07;;;9.60;99.90;;;;;;10423915;28;20210;-81
2022/02/08 22:06:23;;;;;;;10.07;6.60;;;9.60;99.90;;;;;;10405853;28;20681;-81
2022/02/08 22:22:11;;;;;;;5.50;5.00;;;9.60;99.90;;;;;;10373802;28;20201;-81
2022/02/08 22:27:30;;;;;;;9.00;5.60;;;9.60;99.90;;;;;;10420715;28;20277;-81
2022/02/08 22:32:36;;;;;;;6.93;5.10;;;9.50;99.90;;;;;;10429594;28;20209;-78
2022/02/08 22:37:46;;;;;;;7.53;4.87;;;9.50;99.90;;;;;;10421077;28;20655;-80
2022/02/08 22:42:50;;;;;;;5.63;5.10;;;9.50;99.90;;;;;;10417868;28;20677;-82
2022/02/08 22:47:55;;;;;;;7.97;4.90;;;9.50;99.90;;;;;;10414119;28;20218;-80
2022/02/08 22:52:57;;;;;;;4.90;4.10;;;9.50;99.90;;;;;;10419425;28;20275;-80
2022/02/08 22:58:05;;;;;;;7.87;5.30;;;9.40;99.90;;;;;;10418686;28;20317;-81
2022/02/08 23:03:13;;;;;;;8.53;4.70;;;9.40;99.90;;;;;;10415450;28;20217;-82
2022/02/08 23:08:15;;;;;;;6.03;4.70;;;9.40;99.90;;;;;;10423165;28;20280;-80
2022/02/08 23:13:19;;;;;;;5.80;4.60;;;9.30;99.90;;;;;;10405671;28;20249;-81
2022/02/08 23:39:55;;;;;;;11.00;5.30;;;9.30;99.90;;;;;;10408249;28;20690;-82
2022/02/08 23:44:57;;;;;;;5.23;4.67;;;9.30;99.90;;;;;;10419659;28;20206;-79
2022/02/08 23:50:04;;;;;;;5.47;4.47;;;9.20;99.90;;;;;;10436606;28;20325;-80
2022/02/08 23:55:16;;;;;;;7.20;4.63;;;9.20;99.90;;;;;;10427710;28;20230;-80
